PWSweather.com
Personal Weather Stations
Station Observations
KNYLONGL2
Adirondack Acres, Long Lake, NY 12847

Adirondack AcresLong Lake, NY 12847

Lat: 43.979118, Lon: -74.43445500000001

Elevation: 1650

Station Type: Davis Vantage Pro2

http://www.adirondackacres.com/weather

Latest ConditionsUpdated 4:50:00 AM EST Sunday, Dec 15, 2019
Currently Today's Max Today's Min Today's Average
Temperature 31.7°F-0.2°C 31.9°F-0.1°C 31.4°F-0.3°C 31.6°F-0.2°C
Dew Point 29.4°F-1.4°C 30.4°F-0.9°C 29.3°F-1.5°C 29.8°F-1.2°C
Winds 6.0 mph SW9.7 kmh SW 10.0 mph -16.1 kmh - - 6.5 mph 10.5 kmh
Wind Gusts 12.0 mph19.3 kmh 24.0 mph38.6 kmh - -
Humidity 91% 94% 91% 93%
Pressure 29.30 in992.2 mb 29.30 in992.2 mb 29.09 in985.1 mb -
Hour Temp Dew Point Humidity Winds Wind Gusts Pressure Precip Precip Rate Daily Precip Total
04:50 AM 31.7°F-0.2°C 29.4°F-1.4°C 91% 6.0 mph SW9.7 kmh SW 12.0 mph19.3 kmh 29.30 in992.2 mb 0.00 in0.0 mm 0.00 in0.0 mm 0.00 in0.0 mm
04:45 AM 31.6°F-0.2°C 29.3°F-1.5°C 91% 6.0 mph SW9.7 kmh SW 15.0 mph24.1 kmh 29.30 in992.2 mb 0.00 in0.0 mm 0.00 in0.0 mm 0.00 in0.0 mm
04:40 AM 31.6°F-0.2°C 29.3°F-1.5°C 91% 8.0 mph SSW12.9 kmh SSW 20.0 mph32.2 kmh 29.29 in991.9 mb 0.00 in0.0 mm 0.00 in0.0 mm 0.00 in0.0 mm
04:35 AM 31.6°F-0.2°C 29.3°F-1.5°C 91% 8.0 mph SSW12.9 kmh SSW 23.0 mph37.0 kmh 29.29 in991.9 mb 0.00 in0.0 mm 0.00 in0.0 mm 0.00 in0.0 mm
04:30 AM 31.5°F-0.3°C 29.4°F-1.4°C 92% 8.0 mph SSW12.9 kmh SSW 23.0 mph37.0 kmh 29.29 in991.9 mb 0.00 in0.0 mm 0.00 in0.0 mm 0.00 in0.0 mm
04:25 AM 31.5°F-0.3°C 29.4°F-1.4°C 92% 8.0 mph SSW12.9 kmh SSW 17.0 mph27.4 kmh 29.28 in991.5 mb 0.00 in0.0 mm 0.00 in0.0 mm 0.00 in0.0 mm
04:20 AM 31.4°F-0.3°C 29.3°F-1.5°C 92% 6.0 mph SSW9.7 kmh SSW 24.0 mph38.6 kmh 29.28 in991.5 mb 0.00 in0.0 mm 0.00 in0.0 mm 0.00 in0.0 mm
04:15 AM 31.4°F-0.3°C 29.3°F-1.5°C 92% 5.0 mph SW8.0 kmh SW 24.0 mph38.6 kmh 29.27 in991.2 mb 0.00 in0.0 mm 0.00 in0.0 mm 0.00 in0.0 mm
04:10 AM 31.5°F-0.3°C 29.4°F-1.4°C 92% 6.0 mph SW9.7 kmh SW 18.0 mph29.0 kmh 29.27 in991.2 mb 0.00 in0.0 mm 0.00 in0.0 mm 0.00 in0.0 mm
04:05 AM 31.5°F-0.3°C 29.4°F-1.4°C 92% 6.0 mph SW9.7 kmh SW 18.0 mph29.0 kmh 29.26 in990.9 mb 0.00 in0.0 mm 0.00 in0.0 mm 0.00 in0.0 mm
04:00 AM 31.5°F-0.3°C 29.4°F-1.4°C 92% 6.0 mph SW9.7 kmh SW 14.0 mph22.5 kmh 29.26 in990.9 mb 0.00 in0.0 mm 0.00 in0.0 mm 0.00 in0.0 mm
03:55 AM 31.6°F-0.2°C 29.5°F-1.4°C 92% 6.0 mph SSW9.7 kmh SSW 14.0 mph22.5 kmh 29.25 in990.5 mb 0.00 in0.0 mm 0.00 in0.0 mm 0.00 in0.0 mm
03:50 AM 31.6°F-0.2°C 29.5°F-1.4°C 92% 6.0 mph SSW9.7 kmh SSW 14.0 mph22.5 kmh 29.26 in990.9 mb 0.00 in0.0 mm 0.00 in0.0 mm 0.00 in0.0 mm
03:45 AM 31.6°F-0.2°C 29.5°F-1.4°C 92% 7.0 mph SSW11.3 kmh SSW 15.0 mph24.1 kmh 29.25 in990.5 mb 0.00 in0.0 mm 0.00 in0.0 mm 0.00 in0.0 mm
03:40 AM 31.6°F-0.2°C 29.5°F-1.4°C 92% 6.0 mph SSW9.7 kmh SSW 15.0 mph24.1 kmh 29.25 in990.5 mb 0.00 in0.0 mm 0.00 in0.0 mm 0.00 in0.0 mm
03:35 AM 31.6°F-0.2°C 29.5°F-1.4°C 92% 6.0 mph SW9.7 kmh SW 13.0 mph20.9 kmh 29.24 in990.2 mb 0.00 in0.0 mm 0.00 in0.0 mm 0.00 in0.0 mm
03:30 AM 31.6°F-0.2°C 29.5°F-1.4°C 92% 7.0 mph SW11.3 kmh SW 24.0 mph38.6 kmh 29.24 in990.2 mb 0.00 in0.0 mm 0.00 in0.0 mm 0.00 in0.0 mm
03:25 AM 31.5°F-0.3°C 29.7°F-1.3°C 93% 6.0 mph SW9.7 kmh SW 24.0 mph38.6 kmh 29.24 in990.2 mb 0.00 in0.0 mm 0.00 in0.0 mm 0.00 in0.0 mm
03:20 AM 31.5°F-0.3°C 29.7°F-1.3°C 93% 8.0 mph SSW12.9 kmh SSW 24.0 mph38.6 kmh 29.24 in990.2 mb 0.00 in0.0 mm 0.00 in0.0 mm 0.00 in0.0 mm
03:15 AM 31.5°F-0.3°C 29.7°F-1.3°C 93% 10.0 mph SSW16.1 kmh SSW 24.0 mph38.6 kmh 29.23 in989.8 mb 0.00 in0.0 mm 0.00 in0.0 mm 0.00 in0.0 mm
03:10 AM 31.5°F-0.3°C 30.0°F-1.1°C 94% 7.0 mph SSW11.3 kmh SSW 23.0 mph37.0 kmh 29.23 in989.8 mb 0.00 in0.0 mm 0.00 in0.0 mm 0.00 in0.0 mm
03:05 AM 31.4°F-0.3°C 29.9°F-1.2°C 94% 7.0 mph SSW11.3 kmh SSW 18.0 mph29.0 kmh 29.23 in989.8 mb 0.00 in0.0 mm 0.00 in0.0 mm 0.00 in0.0 mm
03:00 AM 31.5°F-0.3°C 30.0°F-1.1°C 94% 6.0 mph SSW9.7 kmh SSW 18.0 mph29.0 kmh 29.22 in989.5 mb 0.00 in0.0 mm 0.00 in0.0 mm 0.00 in0.0 mm
02:55 AM 31.6°F-0.2°C 30.1°F-1.1°C 94% 6.0 mph SSW9.7 kmh SSW 18.0 mph29.0 kmh 29.22 in989.5 mb 0.00 in0.0 mm 0.00 in0.0 mm 0.00 in0.0 mm
02:50 AM 31.7°F-0.2°C 30.2°F-1.0°C 94% 7.0 mph S11.3 kmh S 20.0 mph32.2 kmh 29.22 in989.5 mb 0.00 in0.0 mm 0.00 in0.0 mm 0.00 in0.0 mm
02:45 AM 31.8°F-0.1°C 30.3°F-0.9°C 94% 7.0 mph SSW11.3 kmh SSW 20.0 mph32.2 kmh 29.21 in989.2 mb 0.00 in0.0 mm 0.00 in0.0 mm 0.00 in0.0 mm
02:40 AM 31.8°F-0.1°C 30.3°F-0.9°C 94% 7.0 mph SSW11.3 kmh SSW 15.0 mph24.1 kmh 29.21 in989.2 mb 0.00 in0.0 mm 0.00 in0.0 mm 0.00 in0.0 mm
02:35 AM 31.9°F-0.1°C 30.4°F-0.9°C 94% 8.0 mph SSW12.9 kmh SSW 15.0 mph24.1 kmh 29.20 in988.8 mb 0.00 in0.0 mm 0.00 in0.0 mm 0.00 in0.0 mm
02:30 AM 31.8°F-0.1°C 30.3°F-0.9°C 94% 7.0 mph SSW11.3 kmh SSW 16.0 mph25.7 kmh 29.20 in988.8 mb 0.00 in0.0 mm 0.00 in0.0 mm 0.00 in0.0 mm
02:25 AM 31.8°F-0.1°C 30.3°F-0.9°C 94% 7.0 mph SSW11.3 kmh SSW 17.0 mph27.4 kmh 29.20 in988.8 mb 0.00 in0.0 mm 0.00 in0.0 mm 0.00 in0.0 mm
02:20 AM 31.7°F-0.2°C 30.2°F-1.0°C 94% 7.0 mph SSW11.3 kmh SSW 17.0 mph27.4 kmh 29.19 in988.5 mb 0.00 in0.0 mm 0.00 in0.0 mm 0.00 in0.0 mm
02:15 AM 31.7°F-0.2°C 30.2°F-1.0°C 94% 6.0 mph SSW9.7 kmh SSW 17.0 mph27.4 kmh 29.18 in988.1 mb 0.00 in0.0 mm 0.00 in0.0 mm 0.00 in0.0 mm
02:10 AM 31.6°F-0.2°C 30.1°F-1.1°C 94% 5.0 mph SSW8.0 kmh SSW 17.0 mph27.4 kmh 29.18 in988.1 mb 0.00 in0.0 mm 0.00 in0.0 mm 0.00 in0.0 mm
02:05 AM 31.7°F-0.2°C 30.2°F-1.0°C 94% 5.0 mph SSW8.0 kmh SSW 16.0 mph25.7 kmh 29.18 in988.1 mb 0.00 in0.0 mm 0.00 in0.0 mm 0.00 in0.0 mm
02:00 AM 31.7°F-0.2°C 30.2°F-1.0°C 94% 6.0 mph SSW9.7 kmh SSW 16.0 mph25.7 kmh 29.17 in987.8 mb 0.00 in0.0 mm 0.00 in0.0 mm 0.00 in0.0 mm
01:55 AM 31.7°F-0.2°C 30.2°F-1.0°C 94% 6.0 mph SSW9.7 kmh SSW 16.0 mph25.7 kmh 29.17 in987.8 mb 0.00 in0.0 mm 0.00 in0.0 mm 0.00 in0.0 mm
01:50 AM 31.6°F-0.2°C 30.1°F-1.1°C 94% 6.0 mph SSW9.7 kmh SSW 15.0 mph24.1 kmh 29.17 in987.8 mb 0.00 in0.0 mm 0.00 in0.0 mm 0.00 in0.0 mm
01:45 AM 31.6°F-0.2°C 30.1°F-1.1°C 94% 6.0 mph S9.7 kmh S 15.0 mph24.1 kmh 29.16 in987.5 mb 0.00 in0.0 mm 0.00 in0.0 mm 0.00 in0.0 mm
01:40 AM 31.6°F-0.2°C 30.1°F-1.1°C 94% 6.0 mph SSW9.7 kmh SSW 16.0 mph25.7 kmh 29.16 in987.5 mb 0.00 in0.0 mm 0.00 in0.0 mm 0.00 in0.0 mm
01:35 AM 31.6°F-0.2°C 30.1°F-1.1°C 94% 8.0 mph SSW12.9 kmh SSW 17.0 mph27.4 kmh 29.16 in987.5 mb 0.00 in0.0 mm 0.00 in0.0 mm 0.00 in0.0 mm
01:30 AM 31.6°F-0.2°C 30.1°F-1.1°C 94% 8.0 mph SSW12.9 kmh SSW 17.0 mph27.4 kmh 29.15 in987.1 mb 0.00 in0.0 mm 0.00 in0.0 mm 0.00 in0.0 mm
01:25 AM 31.6°F-0.2°C 30.1°F-1.1°C 94% 7.0 mph S11.3 kmh S 17.0 mph27.4 kmh 29.14 in986.8 mb 0.00 in0.0 mm 0.00 in0.0 mm 0.00 in0.0 mm
01:20 AM 31.6°F-0.2°C 30.1°F-1.1°C 94% 7.0 mph S11.3 kmh S 18.0 mph29.0 kmh 29.14 in986.8 mb 0.00 in0.0 mm 0.00 in0.0 mm 0.00 in0.0 mm
01:15 AM 31.6°F-0.2°C 29.8°F-1.2°C 93% 6.0 mph SSW9.7 kmh SSW 18.0 mph29.0 kmh 29.14 in986.8 mb 0.00 in0.0 mm 0.00 in0.0 mm 0.00 in0.0 mm
01:10 AM 31.7°F-0.2°C 29.9°F-1.2°C 93% 6.0 mph SSW9.7 kmh SSW 17.0 mph27.4 kmh 29.14 in986.8 mb 0.00 in0.0 mm 0.00 in0.0 mm 0.00 in0.0 mm
01:05 AM 31.7°F-0.2°C 29.9°F-1.2°C 93% 6.0 mph SSW9.7 kmh SSW 11.0 mph17.7 kmh 29.13 in986.5 mb 0.00 in0.0 mm 0.00 in0.0 mm 0.00 in0.0 mm
01:00 AM 31.7°F-0.2°C 29.9°F-1.2°C 93% 6.0 mph SSW9.7 kmh SSW 13.0 mph20.9 kmh 29.13 in986.5 mb 0.00 in0.0 mm 0.00 in0.0 mm 0.00 in0.0 mm
12:55 AM 31.7°F-0.2°C 29.9°F-1.2°C 93% 6.0 mph SSW9.7 kmh SSW 13.0 mph20.9 kmh 29.12 in986.1 mb 0.00 in0.0 mm 0.00 in0.0 mm 0.00 in0.0 mm
12:50 AM 31.7°F-0.2°C 29.9°F-1.2°C 93% 6.0 mph SSW9.7 kmh SSW 13.0 mph20.9 kmh 29.12 in986.1 mb 0.00 in0.0 mm 0.00 in0.0 mm 0.00 in0.0 mm
12:45 AM 31.7°F-0.2°C 29.9°F-1.2°C 93% 5.0 mph S8.0 kmh S 13.0 mph20.9 kmh 29.12 in986.1 mb 0.00 in0.0 mm 0.00 in0.0 mm 0.00 in0.0 mm
12:40 AM 31.7°F-0.2°C 29.9°F-1.2°C 93% 6.0 mph S9.7 kmh S 23.0 mph37.0 kmh 29.11 in985.8 mb 0.00 in0.0 mm 0.00 in0.0 mm 0.00 in0.0 mm
12:35 AM 31.7°F-0.2°C 29.9°F-1.2°C 93% 7.0 mph S11.3 kmh S 23.0 mph37.0 kmh 29.11 in985.8 mb 0.00 in0.0 mm 0.00 in0.0 mm 0.00 in0.0 mm
12:30 AM 31.7°F-0.2°C 29.9°F-1.2°C 93% 7.0 mph SSW11.3 kmh SSW 17.0 mph27.4 kmh 29.11 in985.8 mb 0.00 in0.0 mm 0.00 in0.0 mm 0.00 in0.0 mm
12:25 AM 31.6°F-0.2°C 29.8°F-1.2°C 93% 6.0 mph SSW9.7 kmh SSW 13.0 mph20.9 kmh 29.10 in985.4 mb 0.00 in0.0 mm 0.00 in0.0 mm 0.00 in0.0 mm
12:20 AM 31.6°F-0.2°C 29.8°F-1.2°C 93% 6.0 mph SSW9.7 kmh SSW 13.0 mph20.9 kmh 29.10 in985.4 mb 0.00 in0.0 mm 0.00 in0.0 mm 0.00 in0.0 mm
12:15 AM 31.6°F-0.2°C 29.8°F-1.2°C 93% 5.0 mph SSW8.0 kmh SSW 13.0 mph20.9 kmh 29.10 in985.4 mb 0.00 in0.0 mm 0.00 in0.0 mm 0.00 in0.0 mm
12:10 AM 31.7°F-0.2°C 29.9°F-1.2°C 93% 5.0 mph SSW8.0 kmh SSW 17.0 mph27.4 kmh 29.09 in985.1 mb 0.00 in0.0 mm 0.00 in0.0 mm 0.00 in0.0 mm
12:05 AM 31.7°F-0.2°C 29.9°F-1.2°C 93% 6.0 mph S9.7 kmh S 17.0 mph27.4 kmh 29.10 in985.4 mb 0.00 in0.0 mm 0.00 in0.0 mm 0.00 in0.0 mm
12:00 AM 31.8°F-0.1°C 29.7°F-1.3°C 92% 6.0 mph S9.7 kmh S 13.0 mph20.9 kmh 29.09 in985.1 mb 0.00 in0.0 mm 0.00 in0.0 mm 0.00 in0.0 mm